Terminal Aerodrome Forecast
Issued by NWS

Current Version | Previous Version | Text Only | Print | Product List | Glossary On
Versions: 1 2 3 4 5 6 7 8 9 10 11 12 13 14 15 16 17 18 19 20 21 22 23 24 25
000
FTUS45 KBOU 161720
TAFAPA
TAF
KAPA 161720Z 1618/1718 07008KT P6SM FEW060 SCT110 BKN200
     FM170100 12008KT P6SM FEW110 SCT200
     FM170500 19010KT P6SM FEW200
     FM171500 24006KT P6SM FEW110 SCT200=

USA.gov is the U.S. government's official web portal to all federal, state and local government web resources and services.